Time;durP1;ratioP1;P1;durP2;ratioP2;P2;SDS_P1;SDS_P2;PMS_P1;PMS_P2;Temp;Humidity;BMP_temperature;BMP_pressure;BME280_temperature;BME280_humidity;BME280_pressure;Samples;Min_cycle;Max_cycle;Signal;HPM_P1;HPM_P2
2023/12/23 00:00:56;;;;;;;3.58;1.80;;;;;;;10.04;53.07;99454.81;5083526;28;20044;-85
2023/12/23 00:03:48;;;;;;;2.30;1.10;;;;;;;10.18;55.57;99464.22;5086976;28;20047;-85
2023/12/23 00:06:37;;;;;;;3.33;1.10;;;;;;;10.21;55.93;99460.00;5087360;28;20048;-84
2023/12/23 00:09:29;;;;;;;2.92;1.17;;;;;;;10.34;56.44;99460.78;5081477;28;20047;-85
2023/12/23 00:12:22;;;;;;;1.60;1.13;;;;;;;10.41;56.65;99466.44;5087282;28;20409;-85
2023/12/23 00:15:19;;;;;;;5.97;1.50;;;;;;;10.59;56.16;99467.72;5081594;28;20048;-85
2023/12/23 00:18:14;;;;;;;1.98;1.17;;;;;;;10.55;56.34;99464.13;5080902;28;20044;-85
2023/12/23 00:21:04;;;;;;;2.03;1.60;;;;;;;10.59;55.95;99460.38;5083915;28;20047;-85
2023/12/23 00:23:58;;;;;;;2.33;1.05;;;;;;;10.68;54.50;99447.41;5081609;28;20099;-85
2023/12/23 00:26:56;;;;;;;1.23;0.80;;;;;;;10.65;52.74;99450.81;5085353;28;20043;-85
2023/12/23 00:29:50;;;;;;;1.70;0.90;;;;;;;10.60;51.59;99472.03;5071709;28;20059;-85
2023/12/23 00:32:45;;;;;;;0.63;0.43;;;;;;;10.62;49.14;99467.03;5059680;28;20052;-84
2023/12/23 00:35:39;;;;;;;0.90;0.50;;;;;;;10.62;49.00;99464.31;5076987;28;20040;-84
2023/12/23 00:38:32;;;;;;;3.38;1.52;;;;;;;10.57;48.55;99475.41;5084375;28;20560;-84
2023/12/23 00:41:26;;;;;;;4.18;1.30;;;;;;;10.60;47.02;99461.16;5071883;28;20051;-84
2023/12/23 00:44:16;;;;;;;1.77;1.07;;;;;;;10.67;47.19;99472.22;5068806;28;20043;-83
2023/12/23 00:47:14;;;;;;;1.33;0.70;;;;;;;10.67;47.53;99478.44;5066433;28;20043;-84
2023/12/23 00:50:07;;;;;;;3.88;1.02;;;;;;;10.43;48.01;99469.59;5086471;28;20047;-84
2023/12/23 00:53:02;;;;;;;0.70;0.50;;;;;;;10.47;47.25;99473.97;5067649;28;20051;-84
2023/12/23 00:55:56;;;;;;;1.70;0.57;;;;;;;10.49;47.57;99474.44;5071699;28;20051;-84
2023/12/23 00:58:50;;;;;;;1.75;0.60;;;;;;;10.43;47.35;99467.66;5087871;28;20047;-83
2023/12/23 01:01:46;;;;;;;0.83;0.40;;;;;;;10.35;47.03;99475.97;5083523;28;20052;-82
2023/12/23 01:04:38;;;;;;;1.30;0.47;;;;;;;10.51;46.27;99474.91;5071647;28;20294;-83
2023/12/23 01:07:30;;;;;;;0.90;0.52;;;;;;;10.44;46.46;99480.13;5092079;28;20040;-83
2023/12/23 01:10:25;;;;;;;1.00;0.45;;;;;;;10.61;47.06;99496.16;5088153;28;20129;-83
2023/12/23 01:13:17;;;;;;;2.30;0.80;;;;;;;10.51;46.03;99468.66;5072194;28;20414;-83
2023/12/23 01:16:06;;;;;;;0.88;0.60;;;;;;;10.34;47.40;99494.19;5084806;28;20040;-83
2023/12/23 01:19:03;;;;;;;1.40;0.47;;;;;;;10.43;46.74;99492.13;5084614;28;20052;-84
2023/12/23 01:21:57;;;;;;;2.22;0.50;;;;;;;10.38;47.00;99510.59;5091333;28;20051;-82
2023/12/23 01:24:52;;;;;;;1.10;0.60;;;;;;;10.35;46.74;99514.00;5086975;28;20036;-84
2023/12/23 01:27:47;;;;;;;0.98;0.45;;;;;;;10.50;45.99;99513.28;5076041;28;20051;-84
2023/12/23 01:30:41;;;;;;;1.10;0.60;;;;;;;10.58;46.64;99524.00;5071045;28;20043;-84
2023/12/23 01:33:36;;;;;;;0.95;0.30;;;;;;;10.48;45.53;99512.81;5089881;28;20043;-84
2023/12/23 01:36:28;;;;;;;5.17;0.60;;;;;;;10.65;44.89;99513.34;5073485;28;20212;-84
2023/12/23 01:39:21;;;;;;;2.97;0.70;;;;;;;10.67;44.88;99521.16;5090424;28;20051;-84
2023/12/23 01:42:17;;;;;;;1.40;0.75;;;;;;;10.77;46.95;99509.03;5088751;28;20508;-83
2023/12/23 01:45:11;;;;;;;0.50;0.43;;;;;;;10.78;48.19;99516.00;5085506;28;20040;-84
2023/12/23 01:48:05;;;;;;;1.05;0.57;;;;;;;10.70;49.29;99510.41;5074431;28;20048;-83
2023/12/23 01:50:56;;;;;;;1.00;0.60;;;;;;;10.70;50.36;99525.91;5088368;28;20047;-84
2023/12/23 01:53:44;;;;;;;1.25;0.47;;;;;;;10.66;49.14;99497.84;5084997;28;20039;-84
2023/12/23 01:56:38;;;;;;;3.60;0.60;;;;;;;10.78;51.34;99510.56;5074391;28;20040;-84
2023/12/23 01:59:33;;;;;;;1.08;0.60;;;;;;;10.70;50.61;99520.47;5076319;28;20047;-84
2023/12/23 02:02:26;;;;;;;0.50;0.47;;;;;;;10.73;49.43;99514.34;5085064;28;20051;-83
2023/12/23 02:05:19;;;;;;;1.23;0.60;;;;;;;10.74;50.36;99537.69;5070806;28;20047;-84
2023/12/23 02:08:13;;;;;;;0.52;0.52;;;;;;;10.67;49.32;99521.16;5091952;28;20051;-84
2023/12/23 02:11:13;;;;;;;1.00;0.50;;;;;;;10.67;51.28;99523.88;5070048;28;20043;-83
2023/12/23 02:14:20;;;;;;;2.85;0.65;;;;;;;10.64;50.40;99516.41;5085164;28;20048;-83
2023/12/23 02:17:14;;;;;;;1.98;0.80;;;;;;;10.72;50.17;99510.03;5089917;28;20047;-84
2023/12/23 02:20:09;;;;;;;0.70;0.60;;;;;;;10.72;50.18;99513.53;5076103;28;20051;-84
2023/12/23 02:23:04;;;;;;;0.85;0.60;;;;;;;10.83;51.65;99510.34;5091082;28;20051;-84
2023/12/23 02:26:00;;;;;;;0.50;0.30;;;;;;;10.65;52.65;99512.56;5084959;28;20035;-84
2023/12/23 02:28:57;;;;;;;3.10;0.57;;;;;;;10.61;52.16;99517.91;5071380;28;20052;-84
2023/12/23 02:31:50;;;;;;;0.90;0.40;;;;;;;10.63;50.59;99521.06;5074444;28;20047;-84
2023/12/23 02:34:45;;;;;;;0.47;0.47;;;;;;;10.60;49.83;99531.84;5085523;28;20047;-84
2023/12/23 02:37:40;;;;;;;1.00;0.68;;;;;;;10.60;50.04;99515.53;5069539;28;20047;-84
2023/12/23 02:40:36;;;;;;;1.42;0.85;;;;;;;10.55;49.69;99523.91;5090001;28;20047;-84
2023/12/23 02:43:28;;;;;;;0.50;0.40;;;;;;;10.46;48.40;99520.56;5083045;28;20063;-84
2023/12/23 02:46:20;;;;;;;0.90;0.50;;;;;;;10.53;47.27;99532.41;5073868;28;20044;-84
2023/12/23 02:49:12;;;;;;;0.55;0.32;;;;;;;10.43;48.66;99523.94;5074485;28;20051;-83
2023/12/23 02:52:04;;;;;;;0.88;0.63;;;;;;;10.37;51.05;99530.72;5089824;28;20059;-83
2023/12/23 02:54:59;;;;;;;1.38;0.93;;;;;;;10.47;53.61;99557.44;5069714;28;20051;-84
2023/12/23 02:57:48;;;;;;;2.17;0.85;;;;;;;10.50;54.57;99540.47;5084845;28;20043;-83
2023/12/23 03:00:40;;;;;;;1.15;0.68;;;;;;;10.49;55.46;99528.00;5082826;28;20051;-83
2023/12/23 03:03:35;;;;;;;0.82;0.47;;;;;;;10.59;53.38;99524.81;5083034;28;20039;-84
2023/12/23 03:06:30;;;;;;;0.50;0.47;;;;;;;10.74;52.25;99524.09;5083464;28;20047;-83
2023/12/23 03:09:24;;;;;;;0.98;0.63;;;;;;;10.85;53.31;99522.47;5080728;28;20055;-83
2023/12/23 03:12:19;;;;;;;2.88;0.70;;;;;;;10.79;53.54;99515.69;5084415;28;20425;-83
2023/12/23 03:15:14;;;;;;;0.45;0.40;;;;;;;10.81;54.40;99526.22;5067888;28;20047;-84
2023/12/23 03:18:08;;;;;;;3.83;0.60;;;;;;;10.81;53.71;99510.69;5082801;28;20047;-83
2023/12/23 03:21:06;;;;;;;1.83;0.67;;;;;;;11.02;49.53;99516.69;5073707;28;20047;-84
2023/12/23 03:24:00;;;;;;;0.93;0.82;;;;;;;11.15;49.77;99537.28;5087195;28;20043;-84
2023/12/23 03:26:53;;;;;;;0.87;0.40;;;;;;;11.19;51.11;99533.84;5084802;28;20119;-83
2023/12/23 03:29:47;;;;;;;1.42;0.70;;;;;;;11.14;51.95;99532.19;5073605;28;20273;-84
2023/12/23 03:32:42;;;;;;;0.55;0.30;;;;;;;11.16;52.65;99538.09;5089961;28;20039;-84
2023/12/23 03:35:36;;;;;;;2.03;0.70;;;;;;;11.09;53.80;99538.66;5088476;28;20052;-83
2023/12/23 03:38:32;;;;;;;0.50;0.35;;;;;;;11.11;52.59;99528.25;5072471;28;20539;-83
2023/12/23 03:41:26;;;;;;;0.70;0.45;;;;;;;11.34;50.46;99533.88;5074106;28;20047;-83
2023/12/23 03:44:21;;;;;;;0.77;0.50;;;;;;;11.40;50.42;99523.53;5083242;28;20410;-84
2023/12/23 03:47:15;;;;;;;1.00;0.50;;;;;;;11.43;48.98;99541.88;5083046;28;20405;-83
2023/12/23 03:50:10;;;;;;;0.80;0.27;;;;;;;11.51;50.35;99557.28;5066785;28;20043;-83
2023/12/23 03:53:02;;;;;;;1.13;0.60;;;;;;;11.55;46.96;99547.25;5071688;28;20698;-84
2023/12/23 03:55:55;;;;;;;0.85;0.47;;;;;;;11.58;48.19;99558.25;5082983;28;20044;-84
2023/12/23 03:58:49;;;;;;;0.88;0.43;;;;;;;11.55;48.09;99548.06;5066140;28;20048;-84
2023/12/23 04:01:42;;;;;;;1.73;0.80;;;;;;;11.55;48.82;99561.66;5084197;28;20043;-84
2023/12/23 04:04:38;;;;;;;0.60;0.40;;;;;;;11.54;48.44;99560.09;5067079;28;20039;-83
2023/12/23 04:07:33;;;;;;;1.13;0.40;;;;;;;11.35;49.64;99561.91;5087642;28;20043;-84
2023/12/23 04:10:26;;;;;;;1.42;0.50;;;;;;;11.38;47.63;99547.59;5068594;28;20056;-84
2023/12/23 04:13:20;;;;;;;0.35;0.35;;;;;;;11.30;48.52;99559.44;5079226;28;20043;-84
2023/12/23 04:16:14;;;;;;;2.30;0.95;;;;;;;11.35;47.34;99559.97;5085117;28;20405;-84
2023/12/23 04:19:05;;;;;;;;;;;;;;;11.46;47.17;99552.88;5066941;28;20127;-84
2023/12/23 04:21:58;;;;;;;1.40;0.57;;;;;;;11.43;47.50;99550.84;5099205;28;19913;-84
2023/12/23 04:24:56;;;;;;;0.40;0.40;;;;;;;11.41;48.21;99553.13;5079595;28;20040;-85
2023/12/23 04:27:53;;;;;;;1.55;0.70;;;;;;;11.33;49.63;99558.72;5071290;28;20047;-84
2023/12/23 04:30:46;;;;;;;0.98;0.65;;;;;;;11.30;48.76;99570.31;5079123;28;20043;-85
2023/12/23 04:33:37;;;;;;;3.42;0.60;;;;;;;11.24;49.38;99577.16;5067315;28;20059;-85
2023/12/23 04:36:32;;;;;;;1.20;0.40;;;;;;;11.18;48.25;99584.75;5074883;28;20055;-84
2023/12/23 04:39:27;;;;;;;2.25;0.98;;;;;;;11.21;49.55;99584.09;5075004;28;20052;-83
2023/12/23 04:42:20;;;;;;;0.68;0.35;;;;;;;11.17;49.42;99582.41;5075295;28;20051;-84
2023/12/23 04:45:14;;;;;;;0.70;0.50;;;;;;;11.19;49.37;99586.34;5069181;28;20044;-84
2023/12/23 04:48:08;;;;;;;0.80;0.50;;;;;;;11.25;49.52;99586.91;5075820;28;20047;-84
2023/12/23 04:51:07;;;;;;;1.05;0.70;;;;;;;11.22;50.34;99590.31;5090261;28;20111;-84
2023/12/23 04:53:57;;;;;;;2.83;0.40;;;;;;;11.18;49.59;99594.84;5071340;28;20413;-84
2023/12/23 04:56:54;;;;;;;5.95;0.40;;;;;;;11.22;48.52;99598.50;5083394;28;20064;-84
2023/12/23 04:59:49;;;;;;;0.67;0.40;;;;;;;11.19;47.37;99599.16;5072744;28;20107;-84
2023/12/23 05:02:44;;;;;;;0.53;0.30;;;;;;;11.14;47.03;99600.19;5084674;28;20274;-85
2023/12/23 05:05:38;;;;;;;0.30;0.30;;;;;;;11.11;46.08;99612.59;5082004;28;20794;-84
2023/12/23 05:08:33;;;;;;;1.03;0.47;;;;;;;11.09;46.88;99595.81;5073878;28;20048;-85
2023/12/23 05:11:27;;;;;;;0.80;0.40;;;;;;;10.92;46.00;99619.78;5067371;28;20068;-84
2023/12/23 05:14:25;;;;;;;1.20;0.30;;;;;;;10.93;45.73;99633.03;5082359;28;20047;-85
2023/12/23 05:17:20;;;;;;;0.82;0.30;;;;;;;10.95;46.69;99625.31;5073696;28;20047;-84
2023/12/23 05:20:13;;;;;;;0.90;0.50;;;;;;;10.90;46.43;99622.84;5082413;28;20059;-84
2023/12/23 05:23:05;;;;;;;0.70;0.45;;;;;;;10.86;47.66;99632.81;5073700;28;20043;-85
2023/12/23 05:25:54;;;;;;;0.60;0.40;;;;;;;10.81;48.99;99633.06;5073376;28;20044;-84
2023/12/23 05:28:47;;;;;;;1.85;0.50;;;;;;;10.78;49.48;99647.34;5086723;28;20078;-84
2023/12/23 05:31:41;;;;;;;0.70;0.57;;;;;;;10.66;49.84;99650.09;5069424;28;20051;-84
2023/12/23 05:34:36;;;;;;;0.60;0.40;;;;;;;10.70;50.10;99645.53;5084020;28;20052;-85
2023/12/23 05:37:26;;;;;;;0.63;0.40;;;;;;;10.77;50.48;99644.97;5088664;28;20055;-84
2023/12/23 05:40:20;;;;;;;0.70;0.68;;;;;;;10.75;49.97;99658.09;5087827;28;20286;-85
2023/12/23 05:43:15;;;;;;;0.52;0.32;;;;;;;10.80;49.36;99655.16;5081574;28;20063;-85
2023/12/23 05:46:09;;;;;;;1.55;0.43;;;;;;;10.86;48.95;99649.16;5080860;28;20520;-86
2023/12/23 05:49:02;;;;;;;1.33;0.50;;;;;;;10.90;48.54;99655.47;5082866;28;20059;-84
2023/12/23 05:51:56;;;;;;;0.98;0.52;;;;;;;10.94;48.94;99664.53;5088173;28;20043;-84
2023/12/23 05:54:53;;;;;;;3.30;0.40;;;;;;;10.93;49.15;99673.03;5081757;28;20051;-83
2023/12/23 05:57:45;;;;;;;0.50;0.40;;;;;;;10.93;48.91;99665.66;5087248;28;20055;-84
2023/12/23 06:00:40;;;;;;;0.60;0.40;;;;;;;10.97;49.03;99676.66;5087139;28;20039;-85
2023/12/23 06:03:30;;;;;;;0.53;0.30;;;;;;;10.96;48.56;99688.69;5082641;28;20059;-84
2023/12/23 06:06:24;;;;;;;1.88;0.50;;;;;;;10.96;49.00;99694.13;5088657;28;20270;-84
2023/12/23 06:09:19;;;;;;;1.83;0.52;;;;;;;10.82;50.63;99694.47;5086240;28;20044;-83
2023/12/23 06:12:10;;;;;;;4.13;0.40;;;;;;;10.69;51.48;99704.56;5084639;28;20047;-83
2023/12/23 06:14:57;;;;;;;1.98;0.90;;;;;;;10.60;52.09;99722.91;5082245;28;20040;-84
2023/12/23 06:17:52;;;;;;;1.52;0.50;;;;;;;10.51;52.23;99716.00;5082593;28;20063;-84
2023/12/23 06:20:46;;;;;;;1.05;0.50;;;;;;;10.47;52.07;99712.34;5087018;28;20067;-84
2023/12/23 06:23:41;;;;;;;4.55;1.50;;;;;;;10.47;52.17;99717.78;5082799;28;20052;-84
2023/12/23 06:26:36;;;;;;;0.82;0.82;;;;;;;10.41;52.19;99711.00;5069046;28;20044;-84
2023/12/23 06:29:30;;;;;;;1.15;0.77;;;;;;;10.32;51.78;99710.31;5072019;28;20048;-84
2023/12/23 06:32:25;;;;;;;0.50;0.50;;;;;;;10.40;51.54;99714.88;5081129;28;20047;-82
2023/12/23 06:35:20;;;;;;;1.10;0.90;;;;;;;9.74;51.98;99729.28;5072086;28;20056;-82
2023/12/23 06:38:17;;;;;;;2.88;0.50;;;;;;;10.03;52.47;99730.25;5080135;28;20043;-84
2023/12/23 06:41:12;;;;;;;2.05;0.98;;;;;;;10.06;51.15;99741.25;5077543;28;20051;-81
2023/12/23 06:44:04;;;;;;;1.25;0.60;;;;;;;9.92;50.51;99764.38;5081414;28;20051;-82
2023/12/23 06:46:56;;;;;;;1.92;0.80;;;;;;;9.93;50.37;99766.78;5078933;28;20043;-81
2023/12/23 06:49:50;;;;;;;1.10;0.57;;;;;;;10.03;49.77;99762.84;5076554;28;20417;-82
2023/12/23 06:52:41;;;;;;;1.23;0.90;;;;;;;9.66;51.83;99775.47;5080146;28;20540;-82
2023/12/23 06:55:36;;;;;;;0.93;0.55;;;;;;;9.79;52.92;99771.72;5078124;28;20134;-82
2023/12/23 06:58:31;;;;;;;1.08;0.73;;;;;;;9.85;53.64;99765.72;5081853;28;20044;-82
2023/12/23 07:01:25;;;;;;;0.90;0.50;;;;;;;10.09;52.59;99770.47;5078854;28;20077;-82
2023/12/23 07:04:18;;;;;;;0.73;0.60;;;;;;;10.06;53.57;99779.25;5077192;28;20273;-82
2023/12/23 07:07:10;;;;;;;0.77;0.50;;;;;;;10.04;54.97;99776.09;5082808;28;20417;-83
2023/12/23 07:10:04;;;;;;;1.20;0.77;;;;;;;10.07;55.16;99780.84;5075889;28;20405;-82
2023/12/23 07:12:56;;;;;;;0.88;0.60;;;;;;;9.94;55.68;99771.09;5079130;28;20079;-82
2023/12/23 07:15:51;;;;;;;1.27;0.60;;;;;;;9.79;56.18;99772.50;5079016;28;20056;-82
2023/12/23 07:18:53;;;;;;;7.65;0.65;;;;;;;9.96;56.56;99770.75;5082118;28;20056;-83
2023/12/23 07:21:48;;;;;;;2.50;0.50;;;;;;;9.79;57.00;99774.41;5078488;28;20035;-82
2023/12/23 07:24:42;;;;;;;1.67;0.50;;;;;;;9.69;58.36;99794.63;5076815;28;20043;-83
2023/12/23 07:27:34;;;;;;;2.70;0.70;;;;;;;9.70;57.40;99781.84;5078647;28;20040;-83
2023/12/23 07:30:26;;;;;;;4.22;0.57;;;;;;;9.82;57.07;99777.25;5075635;28;20046;-83
2023/12/23 07:33:18;;;;;;;1.23;0.80;;;;;;;9.92;57.34;99789.63;5077510;28;20052;-83
2023/12/23 07:36:13;;;;;;;0.82;0.55;;;;;;;9.86;57.95;99796.38;5080388;28;20059;-82
2023/12/23 07:39:05;;;;;;;3.22;0.88;;;;;;;10.03;57.18;99801.66;5058604;28;20048;-81
2023/12/23 07:41:57;;;;;;;2.57;0.80;;;;;;;9.77;58.23;99792.94;5056668;28;20067;-80
2023/12/23 07:44:52;;;;;;;3.58;0.80;;;;;;;9.92;58.28;99794.25;5072269;28;20043;-81
2023/12/23 07:47:46;;;;;;;1.57;1.00;;;;;;;10.03;58.58;99793.53;5075486;28;20047;-79
2023/12/23 07:50:41;;;;;;;2.03;0.80;;;;;;;9.97;58.85;99810.34;5076358;28;20046;-81
2023/12/23 07:53:35;;;;;;;1.73;1.43;;;;;;;9.88;59.92;99799.56;5076198;28;20044;-81
2023/12/23 07:56:30;;;;;;;2.13;0.70;;;;;;;9.84;60.36;99810.31;5075409;28;20048;-82
2023/12/23 07:59:25;;;;;;;0.70;0.60;;;;;;;9.97;59.97;99803.00;5079295;28;20047;-81
2023/12/23 08:02:19;;;;;;;2.67;1.23;;;;;;;9.91;60.34;99807.03;5077500;28;20048;-82
2023/12/23 08:05:12;;;;;;;4.68;1.52;;;;;;;10.00;60.00;99836.88;5070658;28;20055;-81
2023/12/23 08:08:06;;;;;;;2.63;0.98;;;;;;;10.07;60.64;99848.75;5079947;28;20082;-81
2023/12/23 08:11:01;;;;;;;3.23;0.80;;;;;;;9.93;60.54;99853.69;5081285;28;20039;-81
2023/12/23 08:13:55;;;;;;;3.20;0.77;;;;;;;10.05;60.08;99844.81;5085036;28;20640;-82
2023/12/23 08:16:55;;;;;;;2.90;1.42;;;;;;;10.18;58.80;99830.16;5083301;28;20051;-82
2023/12/23 08:19:50;;;;;;;2.47;0.70;;;;;;;10.32;58.15;99824.44;5085426;28;20043;-82
2023/12/23 08:22:44;;;;;;;1.60;1.07;;;;;;;10.50;58.17;99831.28;5084467;28;20047;-82
2023/12/23 08:25:39;;;;;;;3.33;1.83;;;;;;;10.48;58.19;99847.13;5080946;28;20060;-82
2023/12/23 08:28:31;;;;;;;1.50;1.00;;;;;;;10.73;57.90;99837.91;5083886;28;20425;-83
2023/12/23 08:31:25;;;;;;;1.90;1.20;;;;;;;10.89;56.54;99825.22;5082936;28;20039;-82
2023/12/23 08:34:20;;;;;;;3.10;2.00;;;;;;;10.91;56.89;99847.47;5083351;28;20059;-81
2023/12/23 08:37:15;;;;;;;9.23;4.38;;;;;;;10.90;56.33;99850.50;5082521;28;20040;-81
2023/12/23 08:40:11;;;;;;;7.83;3.37;;;;;;;11.01;56.27;99862.53;5075630;28;20047;-81
2023/12/23 08:43:00;;;;;;;5.97;2.38;;;;;;;11.13;53.68;99854.38;5080416;28;20047;-81
2023/12/23 08:45:55;;;;;;;2.38;1.10;;;;;;;11.30;53.91;99864.25;5078792;28;20044;-82
2023/12/23 08:48:45;;;;;;;1.17;0.70;;;;;;;11.32;54.64;99862.78;5083743;28;20043;-82
2023/12/23 08:51:39;;;;;;;1.83;1.02;;;;;;;11.25;55.76;99862.56;5078690;28;20047;-81
2023/12/23 08:54:37;;;;;;;1.77;0.85;;;;;;;11.37;56.19;99886.25;5080023;28;20040;-81
2023/12/23 08:57:34;;;;;;;4.10;1.00;;;;;;;11.48;55.71;99899.06;5083179;28;20043;-81
2023/12/23 09:00:27;;;;;;;4.32;1.45;;;;;;;11.49;55.51;99888.97;5080759;28;20115;-81
2023/12/23 09:03:21;;;;;;;4.80;0.98;;;;;;;11.51;55.89;99889.44;5084535;28;20059;-81
2023/12/23 09:06:12;;;;;;;3.63;1.00;;;;;;;11.68;54.40;99880.22;5082643;28;20036;-81
2023/12/23 09:09:07;;;;;;;3.50;0.88;;;;;;;11.81;54.69;99879.88;5080503;28;20417;-81
2023/12/23 09:12:02;;;;;;;0.77;0.60;;;;;;;11.73;54.93;99883.53;5084152;28;20544;-81
2023/12/23 09:14:54;;;;;;;1.52;0.77;;;;;;;11.78;54.25;99896.94;5081221;28;20634;-81
2023/12/23 09:17:48;;;;;;;1.90;1.65;;;;;;;11.94;54.24;99910.59;5079121;28;20052;-81
2023/12/23 09:20:38;;;;;;;1.43;0.70;;;;;;;11.95;54.18;99884.94;5082312;28;20509;-81
2023/12/23 09:23:33;;;;;;;2.00;0.90;;;;;;;11.98;54.13;99890.53;5080528;28;20278;-81
2023/12/23 09:26:28;;;;;;;1.70;0.98;;;;;;;11.99;53.25;99870.28;5084149;28;20044;-81
2023/12/23 09:29:22;;;;;;;4.18;1.15;;;;;;;12.08;52.91;99880.28;5081813;28;20059;-81
2023/12/23 09:32:22;;;;;;;0.90;0.80;;;;;;;12.14;53.69;99870.72;5080282;28;20055;-81
2023/12/23 09:35:16;;;;;;;1.17;0.90;;;;;;;12.37;52.57;99886.19;5064847;28;20048;-81
2023/12/23 09:38:11;;;;;;;1.50;1.17;;;;;;;12.41;52.18;99880.81;5080490;28;20513;-81
2023/12/23 09:41:04;;;;;;;1.70;1.00;;;;;;;12.69;51.90;99894.44;5084145;28;20285;-81
2023/12/23 09:43:58;;;;;;;2.60;1.30;;;;;;;13.13;50.54;99897.94;5081845;28;20048;-81
2023/12/23 09:46:50;;;;;;;4.60;0.82;;;;;;;13.29;46.31;99887.81;5079348;28;20044;-81
2023/12/23 09:49:44;;;;;;;1.95;1.10;;;;;;;13.43;45.96;99896.34;5082831;28;20085;-81
2023/12/23 09:52:39;;;;;;;1.75;1.00;;;;;;;13.49;45.54;99897.69;5080750;28;20371;-81
2023/12/23 09:55:32;;;;;;;1.27;0.60;;;;;;;13.69;45.82;99885.66;5078266;28;20048;-81
2023/12/23 09:58:27;;;;;;;4.68;0.93;;;;;;;14.12;44.00;99881.88;5082619;28;20135;-82
2023/12/23 10:01:22;;;;;;;2.58;0.47;;;;;;;14.87;42.89;99889.66;5080254;28;20043;-82
2023/12/23 10:04:14;;;;;;;1.60;0.98;;;;;;;19.70;34.36;99895.34;5083070;28;20048;-82
2023/12/23 10:07:04;;;;;;;1.38;0.60;;;;;;;25.12;25.47;99891.41;5081836;28;20051;-82
2023/12/23 10:09:59;;;;;;;3.55;0.73;;;;;;;29.24;20.57;99896.53;5083499;28;20042;-82
2023/12/23 10:12:53;;;;;;;5.43;0.88;;;;;;;30.83;18.61;99885.94;5083597;28;20047;-82
2023/12/23 10:15:45;;;;;;;2.83;1.17;;;;;;;32.55;16.32;99891.59;5080649;28;20048;-83
2023/12/23 10:18:40;;;;;;;1.65;0.85;;;;;;;31.66;16.98;99889.88;5083964;28;20051;-83
2023/12/23 10:21:35;;;;;;;2.35;1.08;;;;;;;30.09;17.69;99888.09;5081578;28;20543;-82
2023/12/23 10:24:26;;;;;;;1.15;0.90;;;;;;;31.64;16.95;99881.94;5078990;28;20047;-83
2023/12/23 10:27:20;;;;;;;4.03;0.98;;;;;;;33.02;15.11;99879.28;5082850;28;20036;-83
2023/12/23 10:30:21;;;;;;;3.42;1.00;;;;;;;32.88;15.28;99878.06;5078876;28;20043;-83
2023/12/23 10:33:13;;;;;;;1.00;0.70;;;;;;;34.18;14.80;99862.34;5082699;28;20043;-83
2023/12/23 10:36:07;;;;;;;6.97;2.00;;;;;;;35.16;14.15;99874.19;5080639;28;20055;-83
2023/12/23 10:39:02;;;;;;;1.75;1.00;;;;;;;35.12;13.62;99879.28;5077426;28;20067;-83
2023/12/23 10:42:08;;;;;;;1.80;0.98;;;;;;;35.59;13.21;99867.25;5081624;28;20063;-83
2023/12/23 10:45:03;;;;;;;1.48;0.70;;;;;;;34.20;13.50;99862.63;5078091;28;20043;-83
2023/12/23 10:47:55;;;;;;;0.88;0.60;;;;;;;35.34;13.66;99858.91;5081723;28;20047;-83
2023/12/23 10:50:52;;;;;;;0.88;0.52;;;;;;;32.68;14.47;99858.28;5079659;28;20044;-83
2023/12/23 10:53:45;;;;;;;1.17;1.00;;;;;;;33.25;14.27;99860.69;5082732;28;20412;-83
2023/12/23 10:56:41;;;;;;;2.72;0.70;;;;;;;35.87;12.78;99860.91;5080896;28;20409;-84
2023/12/23 10:59:35;;;;;;;5.82;0.52;;;;;;;35.34;12.57;99845.53;5077248;28;20047;-83
2023/12/23 11:02:31;;;;;;;4.47;0.57;;;;;;;35.83;12.28;99849.06;5076691;28;20114;-83
2023/12/23 11:05:22;;;;;;;2.45;1.30;;;;;;;36.69;11.65;99844.56;5056769;28;20056;-83
2023/12/23 11:08:19;;;;;;;5.43;1.50;;;;;;;37.77;11.00;99844.53;5056501;28;20048;-83
2023/12/23 11:11:15;;;;;;;2.60;0.57;;;;;;;30.83;16.16;99824.91;5082823;28;20042;-82
2023/12/23 11:14:09;;;;;;;2.83;1.48;;;;;;;26.48;20.26;99822.50;5083323;28;20047;-82
2023/12/23 11:17:08;;;;;;;1.45;0.50;;;;;;;23.63;21.92;99802.06;5087082;28;20048;-82
2023/12/23 11:20:01;;;;;;;2.03;0.50;;;;;;;22.50;23.42;99791.63;5078445;28;20047;-82
2023/12/23 11:22:55;;;;;;;1.98;0.35;;;;;;;22.01;24.17;99784.00;5081277;28;20046;-82
2023/12/23 11:25:47;;;;;;;;;;;;;;;21.82;24.71;99774.31;5079852;28;20397;-83
2023/12/23 11:28:48;;;;;;;10.98;6.22;;;;;;;21.65;24.82;99778.06;5073746;28;19913;-82
2023/12/23 11:31:43;;;;;;;2.05;1.05;;;;;;;21.23;25.13;99771.78;5078142;28;20039;-83
2023/12/23 11:34:36;;;;;;;2.42;0.60;;;;;;;21.03;24.95;99756.19;5076580;28;20059;-84
2023/12/23 11:38:00;;;;;;;4.05;0.60;;;;;;;20.64;25.53;99750.97;5071800;28;20067;-83
2023/12/23 11:40:58;;;;;;;0.80;0.40;;;;;;;20.58;25.96;99752.59;5078155;28;20043;-83
2023/12/23 11:43:54;;;;;;;1.77;0.70;;;;;;;20.54;25.81;99749.06;5080190;28;20551;-83
2023/12/23 11:46:49;;;;;;;1.55;0.68;;;;;;;20.72;25.94;99749.75;5076814;28;20040;-83
2023/12/23 11:49:45;;;;;;;3.08;0.80;;;;;;;20.47;25.93;99756.22;5075931;28;20043;-83
2023/12/23 11:52:40;;;;;;;2.15;0.50;;;;;;;20.53;26.98;99737.22;5078232;28;20040;-83
2023/12/23 11:55:36;;;;;;;0.90;0.50;;;;;;;20.65;26.03;99738.72;5072439;28;20441;-83
2023/12/23 11:58:32;;;;;;;1.58;0.80;;;;;;;20.37;26.76;99732.22;5086518;28;20413;-83
2023/12/23 12:01:27;;;;;;;2.55;0.90;;;;;;;20.45;26.42;99731.00;5086405;28;20063;-84
2023/12/23 12:04:21;;;;;;;2.00;0.50;;;;;;;20.64;26.19;99717.81;5077183;28;20536;-84
2023/12/23 12:07:14;;;;;;;2.80;0.45;;;;;;;20.73;26.19;99723.66;5079908;28;20044;-83
2023/12/23 12:10:03;;;;;;;3.20;0.90;;;;;;;20.57;26.85;99721.41;5076380;28;20086;-84
2023/12/23 12:12:57;;;;;;;4.80;1.20;;;;;;;20.60;26.35;99714.31;5081134;28;20048;-83
2023/12/23 12:15:52;;;;;;;14.77;1.40;;;;;;;20.54;26.14;99691.84;5080033;28;20044;-85
2023/12/23 12:18:47;;;;;;;3.90;1.70;;;;;;;20.78;26.15;99701.91;5077389;28;20044;-84
2023/12/23 12:21:39;;;;;;;2.28;1.90;;;;;;;20.80;26.29;99695.97;5070598;28;20068;-84
2023/12/23 12:24:37;;;;;;;4.88;2.88;;;;;;;20.72;26.42;99705.53;5071463;28;20071;-84
2023/12/23 12:27:29;;;;;;;7.18;2.03;;;;;;;24.80;21.66;99702.22;5078359;28;20047;-83
2023/12/23 12:30:23;;;;;;;10.60;2.00;;;;;;;27.01;18.36;99700.81;5072444;28;20492;-83
2023/12/23 12:33:18;;;;;;;11.82;1.77;;;;;;;27.43;17.81;99692.94;5075338;28;20043;-81
2023/12/23 12:36:11;;;;;;;4.25;1.52;;;;;;;27.45;17.95;99696.06;5072905;28;20044;-84
2023/12/23 12:39:07;;;;;;;18.63;5.80;;;;;;;28.96;16.42;99691.28;5076882;28;20051;-83
2023/12/23 12:42:01;;;;;;;4.95;1.45;;;;;;;29.79;15.88;99692.00;5079730;28;20043;-82
2023/12/23 12:45:00;;;;;;;2.25;1.13;;;;;;;31.22;15.00;99698.63;5076228;28;20437;-82
2023/12/23 12:47:55;;;;;;;3.72;1.80;;;;;;;30.70;15.21;99686.03;5069802;28;20044;-82
2023/12/23 12:50:47;;;;;;;5.35;3.53;;;;;;;29.64;15.73;99691.88;5078386;28;20051;-82
2023/12/23 12:53:38;;;;;;;7.20;2.53;;;;;;;29.85;15.79;99678.91;5068467;28;20052;-82
2023/12/23 12:56:28;;;;;;;10.68;6.07;;;;;;;29.94;15.46;99690.13;5078759;28;20048;-82
2023/12/23 12:59:20;;;;;;;13.60;5.32;;;;;;;30.09;15.49;99693.81;5076121;28;20063;-82
2023/12/23 13:02:15;;;;;;;8.18;3.45;;;;;;;30.60;15.14;99685.31;5073745;28;20051;-82
2023/12/23 13:05:07;;;;;;;;;;;;;;;30.45;15.30;99699.25;5084378;28;20627;-82
2023/12/23 13:08:02;;;;;;;14.32;2.47;;;;;;;30.30;15.35;99689.97;5080026;28;19912;-81
2023/12/23 13:10:54;;;;;;;19.10;6.25;;;;;;;28.85;16.45;99665.78;5081628;28;20051;-82
2023/12/23 13:13:48;;;;;;;9.77;3.83;;;;;;;28.58;16.77;99663.69;5074174;28;20047;-82
2023/12/23 13:16:43;;;;;;;10.18;4.85;;;;;;;28.74;16.68;99663.44;5075460;28;20052;-83
2023/12/23 13:19:37;;;;;;;15.63;5.63;;;;;;;26.54;18.92;99670.13;5076042;28;20044;-82
2023/12/23 13:22:32;;;;;;;16.98;7.30;;;;;;;26.74;18.63;99671.41;5079113;28;20040;-83
2023/12/23 13:25:27;;;;;;;14.57;6.68;;;;;;;25.53;20.51;99662.47;5083253;28;20421;-83
2023/12/23 13:28:21;;;;;;;8.50;3.92;;;;;;;25.20;20.47;99667.38;5076423;28;20044;-82
2023/12/23 13:31:16;;;;;;;26.75;12.38;;;;;;;25.34;20.48;99666.22;5079887;28;20051;-81
2023/12/23 13:34:10;;;;;;;34.88;17.00;;;;;;;26.42;19.27;99670.91;5075431;28;20036;-82
2023/12/23 13:37:05;;;;;;;22.30;10.80;;;;;;;25.93;19.26;99669.25;5062088;28;20059;-82
2023/12/23 13:39:55;;;;;;;;;;;;;;;27.31;18.66;99672.22;5059887;28;20037;-82